sensor_id;sensor_type;location;lat;lon;timestamp;P1;durP1;ratioP1;P2;durP2;ratioP2
12910;SDS011;6523;49.758;6.120;2024-03-08T00:00:40;17.87;;;12.20;;
12910;SDS011;6523;49.758;6.120;2024-03-08T00:03:07;17.17;;;12.13;;
12910;SDS011;6523;49.758;6.120;2024-03-08T00:05:35;18.40;;;11.47;;
12910;SDS011;6523;49.758;6.120;2024-03-08T00:08:01;17.73;;;11.87;;
12910;SDS011;6523;49.758;6.120;2024-03-08T00:10:26;21.00;;;11.77;;
12910;SDS011;6523;49.758;6.120;2024-03-08T00:12:53;20.90;;;12.57;;
12910;SDS011;6523;49.758;6.120;2024-03-08T00:15:19;19.50;;;11.87;;
12910;SDS011;6523;49.758;6.120;2024-03-08T00:17:48;22.83;;;12.73;;
12910;SDS011;6523;49.758;6.120;2024-03-08T00:20:14;21.53;;;12.37;;
12910;SDS011;6523;49.758;6.120;2024-03-08T00:22:42;20.63;;;13.13;;
12910;SDS011;6523;49.758;6.120;2024-03-08T00:25:08;19.57;;;13.03;;
12910;SDS011;6523;49.758;6.120;2024-03-08T00:27:34;19.77;;;12.63;;
12910;SDS011;6523;49.758;6.120;2024-03-08T00:30:00;22.77;;;12.77;;
12910;SDS011;6523;49.758;6.120;2024-03-08T00:32:26;22.53;;;12.57;;
12910;SDS011;6523;49.758;6.120;2024-03-08T00:34:56;23.00;;;12.63;;
12910;SDS011;6523;49.758;6.120;2024-03-08T00:37:22;21.23;;;13.07;;
12910;SDS011;6523;49.758;6.120;2024-03-08T00:39:49;24.03;;;13.23;;
12910;SDS011;6523;49.758;6.120;2024-03-08T00:42:18;19.30;;;12.87;;
12910;SDS011;6523;49.758;6.120;2024-03-08T00:44:44;19.80;;;12.27;;
12910;SDS011;6523;49.758;6.120;2024-03-08T00:47:10;19.57;;;11.90;;
12910;SDS011;6523;49.758;6.120;2024-03-08T00:49:36;21.70;;;12.63;;
12910;SDS011;6523;49.758;6.120;2024-03-08T00:52:05;18.20;;;11.70;;
12910;SDS011;6523;49.758;6.120;2024-03-08T00:54:32;19.93;;;11.97;;
12910;SDS011;6523;49.758;6.120;2024-03-08T00:56:58;22.30;;;12.33;;
12910;SDS011;6523;49.758;6.120;2024-03-08T00:59:23;22.37;;;13.17;;
12910;SDS011;6523;49.758;6.120;2024-03-08T01:01:49;21.60;;;12.50;;
12910;SDS011;6523;49.758;6.120;2024-03-08T01:04:14;20.37;;;13.33;;
12910;SDS011;6523;49.758;6.120;2024-03-08T01:06:40;20.73;;;13.00;;
12910;SDS011;6523;49.758;6.120;2024-03-08T01:09:07;20.87;;;13.13;;
12910;SDS011;6523;49.758;6.120;2024-03-08T01:11:34;21.07;;;12.53;;
12910;SDS011;6523;49.758;6.120;2024-03-08T01:13:59;20.37;;;12.50;;
12910;SDS011;6523;49.758;6.120;2024-03-08T01:16:26;22.53;;;13.00;;
12910;SDS011;6523;49.758;6.120;2024-03-08T01:18:51;23.23;;;12.93;;
12910;SDS011;6523;49.758;6.120;2024-03-08T01:21:17;23.57;;;12.70;;
12910;SDS011;6523;49.758;6.120;2024-03-08T01:23:43;23.33;;;12.80;;
12910;SDS011;6523;49.758;6.120;2024-03-08T01:26:08;22.30;;;12.73;;
12910;SDS011;6523;49.758;6.120;2024-03-08T01:28:34;21.37;;;12.37;;
12910;SDS011;6523;49.758;6.120;2024-03-08T01:31:00;21.67;;;12.73;;
12910;SDS011;6523;49.758;6.120;2024-03-08T01:33:26;16.80;;;10.97;;
12910;SDS011;6523;49.758;6.120;2024-03-08T01:35:52;21.13;;;12.77;;
12910;SDS011;6523;49.758;6.120;2024-03-08T01:38:18;19.07;;;11.87;;
12910;SDS011;6523;49.758;6.120;2024-03-08T01:40:46;22.03;;;12.40;;
12910;SDS011;6523;49.758;6.120;2024-03-08T01:43:19;22.00;;;13.43;;
12910;SDS011;6523;49.758;6.120;2024-03-08T01:45:53;19.63;;;11.50;;
12910;SDS011;6523;49.758;6.120;2024-03-08T01:48:20;22.27;;;12.97;;
12910;SDS011;6523;49.758;6.120;2024-03-08T01:50:49;21.57;;;13.33;;
12910;SDS011;6523;49.758;6.120;2024-03-08T01:53:15;22.87;;;13.20;;
12910;SDS011;6523;49.758;6.120;2024-03-08T01:55:43;25.40;;;14.47;;
12910;SDS011;6523;49.758;6.120;2024-03-08T01:58:11;23.77;;;13.20;;
12910;SDS011;6523;49.758;6.120;2024-03-08T02:00:40;25.57;;;13.97;;
12910;SDS011;6523;49.758;6.120;2024-03-08T02:03:09;23.10;;;13.47;;
12910;SDS011;6523;49.758;6.120;2024-03-08T02:05:35;27.20;;;14.17;;
12910;SDS011;6523;49.758;6.120;2024-03-08T02:08:03;27.57;;;14.00;;
12910;SDS011;6523;49.758;6.120;2024-03-08T02:10:32;21.90;;;13.57;;
12910;SDS011;6523;49.758;6.120;2024-03-08T02:12:58;23.33;;;12.83;;
12910;SDS011;6523;49.758;6.120;2024-03-08T02:15:26;23.67;;;13.10;;
12910;SDS011;6523;49.758;6.120;2024-03-08T02:18:12;22.13;;;13.70;;
12910;SDS011;6523;49.758;6.120;2024-03-08T02:20:38;21.67;;;13.10;;
12910;SDS011;6523;49.758;6.120;2024-03-08T02:23:03;24.50;;;13.47;;
12910;SDS011;6523;49.758;6.120;2024-03-08T02:25:29;22.13;;;13.20;;
12910;SDS011;6523;49.758;6.120;2024-03-08T02:27:56;23.03;;;13.57;;
12910;SDS011;6523;49.758;6.120;2024-03-08T02:30:21;22.80;;;13.80;;
12910;SDS011;6523;49.758;6.120;2024-03-08T02:32:47;23.10;;;12.40;;
12910;SDS011;6523;49.758;6.120;2024-03-08T02:35:12;23.27;;;12.57;;
12910;SDS011;6523;49.758;6.120;2024-03-08T02:37:38;23.50;;;13.10;;
12910;SDS011;6523;49.758;6.120;2024-03-08T02:40:04;24.87;;;13.80;;
12910;SDS011;6523;49.758;6.120;2024-03-08T02:42:30;25.80;;;13.70;;
12910;SDS011;6523;49.758;6.120;2024-03-08T02:44:56;21.37;;;12.73;;
12910;SDS011;6523;49.758;6.120;2024-03-08T02:47:21;26.50;;;14.90;;
12910;SDS011;6523;49.758;6.120;2024-03-08T02:49:47;25.80;;;13.73;;
12910;SDS011;6523;49.758;6.120;2024-03-08T02:52:12;23.07;;;13.70;;
12910;SDS011;6523;49.758;6.120;2024-03-08T02:54:38;25.57;;;13.80;;
12910;SDS011;6523;49.758;6.120;2024-03-08T02:57:04;26.20;;;14.30;;
12910;SDS011;6523;49.758;6.120;2024-03-08T02:59:29;25.57;;;14.43;;
12910;SDS011;6523;49.758;6.120;2024-03-08T03:01:55;30.90;;;15.87;;
12910;SDS011;6523;49.758;6.120;2024-03-08T03:04:20;30.07;;;15.87;;
12910;SDS011;6523;49.758;6.120;2024-03-08T03:06:46;28.37;;;15.70;;
12910;SDS011;6523;49.758;6.120;2024-03-08T03:09:12;23.27;;;13.87;;
12910;SDS011;6523;49.758;6.120;2024-03-08T03:11:43;27.27;;;14.03;;
12910;SDS011;6523;49.758;6.120;2024-03-08T03:14:09;26.83;;;15.03;;
12910;SDS011;6523;49.758;6.120;2024-03-08T03:16:35;23.57;;;14.07;;
12910;SDS011;6523;49.758;6.120;2024-03-08T03:19:00;26.03;;;13.97;;
12910;SDS011;6523;49.758;6.120;2024-03-08T03:21:29;27.40;;;14.93;;
12910;SDS011;6523;49.758;6.120;2024-03-08T03:23:56;25.60;;;14.23;;
12910;SDS011;6523;49.758;6.120;2024-03-08T03:26:24;24.97;;;14.77;;
12910;SDS011;6523;49.758;6.120;2024-03-08T03:28:49;23.90;;;14.13;;
12910;SDS011;6523;49.758;6.120;2024-03-08T03:31:15;25.43;;;13.57;;
12910;SDS011;6523;49.758;6.120;2024-03-08T03:33:42;26.23;;;14.03;;
12910;SDS011;6523;49.758;6.120;2024-03-08T03:36:08;25.27;;;14.70;;
12910;SDS011;6523;49.758;6.120;2024-03-08T03:38:34;25.87;;;14.23;;
12910;SDS011;6523;49.758;6.120;2024-03-08T03:41:00;24.83;;;14.13;;
12910;SDS011;6523;49.758;6.120;2024-03-08T03:43:34;23.70;;;13.43;;
12910;SDS011;6523;49.758;6.120;2024-03-08T03:46:05;24.17;;;13.17;;
12910;SDS011;6523;49.758;6.120;2024-03-08T03:48:31;27.33;;;13.47;;
12910;SDS011;6523;49.758;6.120;2024-03-08T03:50:57;26.37;;;13.90;;
12910;SDS011;6523;49.758;6.120;2024-03-08T03:53:22;26.00;;;13.60;;
12910;SDS011;6523;49.758;6.120;2024-03-08T03:55:48;26.23;;;14.90;;
12910;SDS011;6523;49.758;6.120;2024-03-08T03:58:14;24.13;;;14.50;;
12910;SDS011;6523;49.758;6.120;2024-03-08T04:00:40;25.90;;;14.43;;
12910;SDS011;6523;49.758;6.120;2024-03-08T04:03:06;23.17;;;12.90;;
12910;SDS011;6523;49.758;6.120;2024-03-08T04:05:32;27.80;;;14.97;;
12910;SDS011;6523;49.758;6.120;2024-03-08T04:07:58;29.97;;;15.20;;
12910;SDS011;6523;49.758;6.120;2024-03-08T04:10:23;25.87;;;14.23;;
12910;SDS011;6523;49.758;6.120;2024-03-08T04:12:49;22.63;;;13.70;;
12910;SDS011;6523;49.758;6.120;2024-03-08T04:15:15;24.27;;;13.63;;
12910;SDS011;6523;49.758;6.120;2024-03-08T04:17:40;25.03;;;13.90;;
12910;SDS011;6523;49.758;6.120;2024-03-08T04:20:06;23.80;;;14.47;;
12910;SDS011;6523;49.758;6.120;2024-03-08T04:22:37;26.07;;;14.97;;
12910;SDS011;6523;49.758;6.120;2024-03-08T04:25:04;22.77;;;13.90;;
12910;SDS011;6523;49.758;6.120;2024-03-08T04:27:31;24.63;;;14.50;;
12910;SDS011;6523;49.758;6.120;2024-03-08T04:29:58;25.43;;;14.60;;
12910;SDS011;6523;49.758;6.120;2024-03-08T04:32:24;25.87;;;13.87;;
12910;SDS011;6523;49.758;6.120;2024-03-08T04:34:50;27.70;;;15.87;;
12910;SDS011;6523;49.758;6.120;2024-03-08T04:37:15;25.60;;;14.60;;
12910;SDS011;6523;49.758;6.120;2024-03-08T04:39:47;28.20;;;15.80;;
12910;SDS011;6523;49.758;6.120;2024-03-08T04:42:13;31.43;;;16.93;;
12910;SDS011;6523;49.758;6.120;2024-03-08T04:44:39;28.77;;;16.37;;
12910;SDS011;6523;49.758;6.120;2024-03-08T04:47:05;30.87;;;16.57;;
12910;SDS011;6523;49.758;6.120;2024-03-08T04:49:32;27.70;;;16.30;;
12910;SDS011;6523;49.758;6.120;2024-03-08T04:52:00;28.23;;;16.40;;
12910;SDS011;6523;49.758;6.120;2024-03-08T04:54:29;29.43;;;16.93;;
12910;SDS011;6523;49.758;6.120;2024-03-08T04:56:55;29.10;;;16.33;;
12910;SDS011;6523;49.758;6.120;2024-03-08T04:59:21;30.90;;;15.83;;
12910;SDS011;6523;49.758;6.120;2024-03-08T05:01:47;31.60;;;16.33;;
12910;SDS011;6523;49.758;6.120;2024-03-08T05:04:13;32.77;;;17.53;;
12910;SDS011;6523;49.758;6.120;2024-03-08T05:06:39;27.17;;;15.80;;
12910;SDS011;6523;49.758;6.120;2024-03-08T05:09:04;28.70;;;16.77;;
12910;SDS011;6523;49.758;6.120;2024-03-08T05:11:38;32.33;;;17.93;;
12910;SDS011;6523;49.758;6.120;2024-03-08T05:14:08;32.53;;;16.87;;
12910;SDS011;6523;49.758;6.120;2024-03-08T05:16:34;30.97;;;16.77;;
12910;SDS011;6523;49.758;6.120;2024-03-08T05:18:59;29.70;;;16.20;;
12910;SDS011;6523;49.758;6.120;2024-03-08T05:21:25;31.03;;;16.77;;
12910;SDS011;6523;49.758;6.120;2024-03-08T05:23:51;31.67;;;17.03;;
12910;SDS011;6523;49.758;6.120;2024-03-08T05:26:16;24.33;;;16.10;;
12910;SDS011;6523;49.758;6.120;2024-03-08T05:28:42;30.70;;;17.83;;
12910;SDS011;6523;49.758;6.120;2024-03-08T05:31:08;31.10;;;17.30;;
12910;SDS011;6523;49.758;6.120;2024-03-08T05:33:34;35.53;;;18.53;;
12910;SDS011;6523;49.758;6.120;2024-03-08T05:36:00;29.67;;;17.43;;
12910;SDS011;6523;49.758;6.120;2024-03-08T05:38:27;29.63;;;17.50;;
12910;SDS011;6523;49.758;6.120;2024-03-08T05:40:53;31.73;;;17.53;;
12910;SDS011;6523;49.758;6.120;2024-03-08T05:43:19;27.60;;;16.77;;
12910;SDS011;6523;49.758;6.120;2024-03-08T05:45:45;32.43;;;17.83;;
12910;SDS011;6523;49.758;6.120;2024-03-08T05:48:11;27.07;;;16.63;;
12910;SDS011;6523;49.758;6.120;2024-03-08T05:50:38;27.50;;;15.77;;
12910;SDS011;6523;49.758;6.120;2024-03-08T05:53:04;29.80;;;17.43;;
12910;SDS011;6523;49.758;6.120;2024-03-08T05:55:32;30.50;;;16.77;;
12910;SDS011;6523;49.758;6.120;2024-03-08T05:58:01;30.80;;;17.50;;
12910;SDS011;6523;49.758;6.120;2024-03-08T06:00:27;29.87;;;17.23;;
12910;SDS011;6523;49.758;6.120;2024-03-08T06:02:53;27.77;;;16.57;;
12910;SDS011;6523;49.758;6.120;2024-03-08T06:05:18;28.33;;;16.83;;
12910;SDS011;6523;49.758;6.120;2024-03-08T06:07:44;30.37;;;17.33;;
12910;SDS011;6523;49.758;6.120;2024-03-08T06:10:10;25.50;;;15.57;;
12910;SDS011;6523;49.758;6.120;2024-03-08T06:12:42;32.47;;;17.33;;
12910;SDS011;6523;49.758;6.120;2024-03-08T06:15:08;32.23;;;18.50;;
12910;SDS011;6523;49.758;6.120;2024-03-08T06:17:35;29.50;;;16.80;;
12910;SDS011;6523;49.758;6.120;2024-03-08T06:20:01;30.83;;;16.90;;
12910;SDS011;6523;49.758;6.120;2024-03-08T06:22:28;30.47;;;17.63;;
12910;SDS011;6523;49.758;6.120;2024-03-08T06:24:55;31.63;;;17.67;;
12910;SDS011;6523;49.758;6.120;2024-03-08T06:27:21;26.13;;;16.50;;
12910;SDS011;6523;49.758;6.120;2024-03-08T06:29:47;31.77;;;17.70;;
12910;SDS011;6523;49.758;6.120;2024-03-08T06:32:14;27.77;;;16.60;;
12910;SDS011;6523;49.758;6.120;2024-03-08T06:34:40;29.23;;;17.27;;
12910;SDS011;6523;49.758;6.120;2024-03-08T06:37:06;32.77;;;17.67;;
12910;SDS011;6523;49.758;6.120;2024-03-08T06:39:32;28.97;;;17.60;;
12910;SDS011;6523;49.758;6.120;2024-03-08T06:41:59;30.03;;;17.53;;
12910;SDS011;6523;49.758;6.120;2024-03-08T06:44:25;29.93;;;16.73;;
12910;SDS011;6523;49.758;6.120;2024-03-08T06:46:50;33.23;;;17.67;;
12910;SDS011;6523;49.758;6.120;2024-03-08T06:49:16;30.47;;;17.63;;
12910;SDS011;6523;49.758;6.120;2024-03-08T06:51:42;28.93;;;16.93;;
12910;SDS011;6523;49.758;6.120;2024-03-08T06:54:07;28.30;;;16.63;;
12910;SDS011;6523;49.758;6.120;2024-03-08T06:56:34;28.40;;;17.67;;
12910;SDS011;6523;49.758;6.120;2024-03-08T06:59:00;30.83;;;17.77;;
12910;SDS011;6523;49.758;6.120;2024-03-08T07:01:28;34.80;;;18.20;;
12910;SDS011;6523;49.758;6.120;2024-03-08T07:03:57;30.07;;;18.03;;
12910;SDS011;6523;49.758;6.120;2024-03-08T07:06:23;28.13;;;16.97;;
12910;SDS011;6523;49.758;6.120;2024-03-08T07:08:48;31.63;;;17.63;;
12910;SDS011;6523;49.758;6.120;2024-03-08T07:11:14;31.80;;;18.30;;
12910;SDS011;6523;49.758;6.120;2024-03-08T07:13:43;30.73;;;18.30;;
12910;SDS011;6523;49.758;6.120;2024-03-08T07:16:10;30.60;;;17.47;;
12910;SDS011;6523;49.758;6.120;2024-03-08T07:18:37;31.63;;;17.60;;
12910;SDS011;6523;49.758;6.120;2024-03-08T07:21:08;33.67;;;18.47;;
12910;SDS011;6523;49.758;6.120;2024-03-08T07:23:36;28.53;;;17.77;;
12910;SDS011;6523;49.758;6.120;2024-03-08T07:26:14;32.90;;;18.87;;
12910;SDS011;6523;49.758;6.120;2024-03-08T07:28:41;33.20;;;18.67;;
12910;SDS011;6523;49.758;6.120;2024-03-08T07:31:06;28.30;;;17.57;;
12910;SDS011;6523;49.758;6.120;2024-03-08T07:33:50;29.17;;;17.80;;
12910;SDS011;6523;49.758;6.120;2024-03-08T07:36:16;34.27;;;18.10;;
12910;SDS011;6523;49.758;6.120;2024-03-08T07:38:42;28.63;;;17.20;;
12910;SDS011;6523;49.758;6.120;2024-03-08T07:41:08;32.87;;;18.50;;
12910;SDS011;6523;49.758;6.120;2024-03-08T07:43:34;31.90;;;18.43;;
12910;SDS011;6523;49.758;6.120;2024-03-08T07:46:00;29.77;;;18.33;;
12910;SDS011;6523;49.758;6.120;2024-03-08T07:48:25;30.77;;;18.10;;
12910;SDS011;6523;49.758;6.120;2024-03-08T07:50:52;33.13;;;18.93;;
12910;SDS011;6523;49.758;6.120;2024-03-08T07:53:17;32.43;;;18.30;;
12910;SDS011;6523;49.758;6.120;2024-03-08T07:55:43;31.50;;;17.40;;
12910;SDS011;6523;49.758;6.120;2024-03-08T07:58:10;30.83;;;17.80;;
12910;SDS011;6523;49.758;6.120;2024-03-08T08:00:36;31.10;;;18.90;;
12910;SDS011;6523;49.758;6.120;2024-03-08T08:03:02;28.73;;;16.87;;
12910;SDS011;6523;49.758;6.120;2024-03-08T08:05:28;29.57;;;18.20;;
12910;SDS011;6523;49.758;6.120;2024-03-08T08:07:54;26.27;;;16.63;;
12910;SDS011;6523;49.758;6.120;2024-03-08T08:10:20;26.03;;;16.53;;
12910;SDS011;6523;49.758;6.120;2024-03-08T08:12:50;27.60;;;16.83;;
12910;SDS011;6523;49.758;6.120;2024-03-08T08:15:16;27.00;;;16.93;;
12910;SDS011;6523;49.758;6.120;2024-03-08T08:17:43;29.53;;;17.53;;
12910;SDS011;6523;49.758;6.120;2024-03-08T08:20:09;26.53;;;16.90;;
12910;SDS011;6523;49.758;6.120;2024-03-08T08:22:37;24.63;;;16.47;;
12910;SDS011;6523;49.758;6.120;2024-03-08T08:25:04;25.70;;;16.70;;
12910;SDS011;6523;49.758;6.120;2024-03-08T08:27:30;29.33;;;16.90;;
12910;SDS011;6523;49.758;6.120;2024-03-08T08:29:55;24.17;;;15.40;;
12910;SDS011;6523;49.758;6.120;2024-03-08T08:32:21;26.67;;;16.40;;
12910;SDS011;6523;49.758;6.120;2024-03-08T08:34:47;27.50;;;16.93;;
12910;SDS011;6523;49.758;6.120;2024-03-08T08:37:13;27.07;;;16.40;;
12910;SDS011;6523;49.758;6.120;2024-03-08T08:39:39;27.47;;;15.97;;
12910;SDS011;6523;49.758;6.120;2024-03-08T08:42:05;28.30;;;16.67;;
12910;SDS011;6523;49.758;6.120;2024-03-08T08:44:34;25.33;;;15.20;;
12910;SDS011;6523;49.758;6.120;2024-03-08T08:47:00;25.00;;;15.43;;
12910;SDS011;6523;49.758;6.120;2024-03-08T08:49:26;25.07;;;16.07;;
12910;SDS011;6523;49.758;6.120;2024-03-08T08:51:52;22.80;;;15.20;;
12910;SDS011;6523;49.758;6.120;2024-03-08T08:54:18;25.80;;;15.73;;
12910;SDS011;6523;49.758;6.120;2024-03-08T08:56:44;23.90;;;15.17;;
12910;SDS011;6523;49.758;6.120;2024-03-08T08:59:10;25.57;;;15.33;;
12910;SDS011;6523;49.758;6.120;2024-03-08T09:01:39;23.63;;;15.03;;
12910;SDS011;6523;49.758;6.120;2024-03-08T09:04:05;22.47;;;14.57;;
12910;SDS011;6523;49.758;6.120;2024-03-08T09:06:32;23.40;;;15.03;;
12910;SDS011;6523;49.758;6.120;2024-03-08T09:08:58;22.33;;;15.33;;
12910;SDS011;6523;49.758;6.120;2024-03-08T09:11:24;25.73;;;15.73;;
12910;SDS011;6523;49.758;6.120;2024-03-08T09:13:50;24.73;;;14.87;;
12910;SDS011;6523;49.758;6.120;2024-03-08T09:16:16;24.50;;;15.77;;
12910;SDS011;6523;49.758;6.120;2024-03-08T09:18:41;24.43;;;15.17;;
12910;SDS011;6523;49.758;6.120;2024-03-08T09:21:07;21.53;;;14.33;;
12910;SDS011;6523;49.758;6.120;2024-03-08T09:23:35;23.17;;;14.87;;
12910;SDS011;6523;49.758;6.120;2024-03-08T09:26:01;23.03;;;14.83;;
12910;SDS011;6523;49.758;6.120;2024-03-08T09:28:29;19.97;;;12.77;;
12910;SDS011;6523;49.758;6.120;2024-03-08T09:30:55;20.30;;;13.80;;
12910;SDS011;6523;49.758;6.120;2024-03-08T09:33:20;20.53;;;14.40;;
12910;SDS011;6523;49.758;6.120;2024-03-08T09:35:47;19.17;;;14.20;;
12910;SDS011;6523;49.758;6.120;2024-03-08T09:38:13;22.13;;;14.77;;
12910;SDS011;6523;49.758;6.120;2024-03-08T09:40:42;18.83;;;13.73;;
12910;SDS011;6523;49.758;6.120;2024-03-08T09:43:09;20.20;;;13.83;;
12910;SDS011;6523;49.758;6.120;2024-03-08T09:45:36;20.70;;;13.87;;
12910;SDS011;6523;49.758;6.120;2024-03-08T09:48:05;17.43;;;12.43;;
12910;SDS011;6523;49.758;6.120;2024-03-08T09:50:37;20.33;;;13.40;;
12910;SDS011;6523;49.758;6.120;2024-03-08T09:53:03;19.30;;;13.00;;
12910;SDS011;6523;49.758;6.120;2024-03-08T09:55:29;19.63;;;13.10;;
12910;SDS011;6523;49.758;6.120;2024-03-08T09:57:59;17.07;;;12.30;;
12910;SDS011;6523;49.758;6.120;2024-03-08T10:00:45;18.47;;;11.87;;
12910;SDS011;6523;49.758;6.120;2024-03-08T10:03:10;14.97;;;11.87;;
12910;SDS011;6523;49.758;6.120;2024-03-08T10:05:36;17.00;;;12.80;;
12910;SDS011;6523;49.758;6.120;2024-03-08T10:08:02;17.13;;;12.80;;
12910;SDS011;6523;49.758;6.120;2024-03-08T10:10:28;16.10;;;12.20;;
12910;SDS011;6523;49.758;6.120;2024-03-08T10:12:54;15.87;;;11.00;;
12910;SDS011;6523;49.758;6.120;2024-03-08T10:15:21;14.70;;;11.10;;
12910;SDS011;6523;49.758;6.120;2024-03-08T10:17:47;16.77;;;11.73;;
12910;SDS011;6523;49.758;6.120;2024-03-08T10:20:17;15.40;;;11.90;;
12910;SDS011;6523;49.758;6.120;2024-03-08T10:22:43;17.20;;;11.60;;
12910;SDS011;6523;49.758;6.120;2024-03-08T10:25:12;14.97;;;11.87;;
12910;SDS011;6523;49.758;6.120;2024-03-08T10:27:38;16.73;;;12.63;;
12910;SDS011;6523;49.758;6.120;2024-03-08T10:30:14;17.40;;;11.00;;
12910;SDS011;6523;49.758;6.120;2024-03-08T10:32:44;16.97;;;12.37;;
12910;SDS011;6523;49.758;6.120;2024-03-08T10:35:13;15.30;;;11.97;;
12910;SDS011;6523;49.758;6.120;2024-03-08T10:40:10;15.67;;;11.57;;
12910;SDS011;6523;49.758;6.120;2024-03-08T10:45:40;16.67;;;12.60;;
12910;SDS011;6523;49.758;6.120;2024-03-08T10:48:28;15.33;;;11.57;;
12910;SDS011;6523;49.758;6.120;2024-03-08T10:51:04;15.00;;;11.80;;
12910;SDS011;6523;49.758;6.120;2024-03-08T10:53:30;14.27;;;10.83;;
12910;SDS011;6523;49.758;6.120;2024-03-08T10:55:56;17.23;;;12.70;;
12910;SDS011;6523;49.758;6.120;2024-03-08T10:58:23;15.33;;;11.93;;
12910;SDS011;6523;49.758;6.120;2024-03-08T11:00:54;14.50;;;11.50;;
12910;SDS011;6523;49.758;6.120;2024-03-08T11:06:08;17.10;;;12.30;;
12910;SDS011;6523;49.758;6.120;2024-03-08T11:08:42;16.03;;;11.83;;
12910;SDS011;6523;49.758;6.120;2024-03-08T11:13:52;15.50;;;12.03;;
12910;SDS011;6523;49.758;6.120;2024-03-08T11:19:00;14.27;;;11.37;;
12910;SDS011;6523;49.758;6.120;2024-03-08T11:21:30;15.47;;;12.07;;
12910;SDS011;6523;49.758;6.120;2024-03-08T11:24:02;15.77;;;12.53;;
12910;SDS011;6523;49.758;6.120;2024-03-08T11:26:31;16.40;;;13.00;;
12910;SDS011;6523;49.758;6.120;2024-03-08T11:34:35;13.63;;;11.30;;
12910;SDS011;6523;49.758;6.120;2024-03-08T11:37:05;15.00;;;12.10;;
12910;SDS011;6523;49.758;6.120;2024-03-08T11:39:48;14.40;;;11.80;;
12910;SDS011;6523;49.758;6.120;2024-03-08T11:42:18;14.23;;;11.57;;
12910;SDS011;6523;49.758;6.120;2024-03-08T11:44:47;16.17;;;12.67;;
12910;SDS011;6523;49.758;6.120;2024-03-08T11:47:15;15.93;;;12.93;;
12910;SDS011;6523;49.758;6.120;2024-03-08T11:49:41;15.60;;;11.70;;
12910;SDS011;6523;49.758;6.120;2024-03-08T11:52:12;14.30;;;11.93;;
12910;SDS011;6523;49.758;6.120;2024-03-08T11:54:42;13.23;;;11.83;;
12910;SDS011;6523;49.758;6.120;2024-03-08T11:57:17;15.73;;;11.73;;
12910;SDS011;6523;49.758;6.120;2024-03-08T11:59:49;14.80;;;11.77;;
12910;SDS011;6523;49.758;6.120;2024-03-08T12:02:18;15.67;;;11.93;;
12910;SDS011;6523;49.758;6.120;2024-03-08T12:04:47;13.57;;;11.77;;
12910;SDS011;6523;49.758;6.120;2024-03-08T12:07:12;13.80;;;10.73;;
12910;SDS011;6523;49.758;6.120;2024-03-08T12:09:41;13.50;;;11.63;;
12910;SDS011;6523;49.758;6.120;2024-03-08T12:12:11;14.27;;;11.33;;
12910;SDS011;6523;49.758;6.120;2024-03-08T12:14:37;14.37;;;12.53;;
12910;SDS011;6523;49.758;6.120;2024-03-08T12:17:03;13.43;;;11.33;;
12910;SDS011;6523;49.758;6.120;2024-03-08T12:19:30;13.63;;;11.17;;
12910;SDS011;6523;49.758;6.120;2024-03-08T12:21:56;15.10;;;12.90;;
12910;SDS011;6523;49.758;6.120;2024-03-08T12:24:22;14.70;;;11.77;;
12910;SDS011;6523;49.758;6.120;2024-03-08T12:26:48;14.47;;;11.77;;
12910;SDS011;6523;49.758;6.120;2024-03-08T12:29:17;16.30;;;12.47;;
12910;SDS011;6523;49.758;6.120;2024-03-08T12:31:48;15.77;;;11.27;;
12910;SDS011;6523;49.758;6.120;2024-03-08T12:34:20;14.30;;;12.40;;
12910;SDS011;6523;49.758;6.120;2024-03-08T12:36:46;13.27;;;11.17;;
12910;SDS011;6523;49.758;6.120;2024-03-08T12:39:18;13.57;;;11.57;;
12910;SDS011;6523;49.758;6.120;2024-03-08T12:41:54;15.00;;;12.60;;
12910;SDS011;6523;49.758;6.120;2024-03-08T12:44:19;15.10;;;12.97;;
12910;SDS011;6523;49.758;6.120;2024-03-08T12:46:50;12.67;;;11.33;;
12910;SDS011;6523;49.758;6.120;2024-03-08T12:49:16;15.03;;;11.93;;
12910;SDS011;6523;49.758;6.120;2024-03-08T12:51:47;13.20;;;11.40;;
12910;SDS011;6523;49.758;6.120;2024-03-08T12:54:13;15.23;;;12.10;;
12910;SDS011;6523;49.758;6.120;2024-03-08T12:56:39;12.97;;;11.20;;
12910;SDS011;6523;49.758;6.120;2024-03-08T12:59:05;13.00;;;11.10;;
12910;SDS011;6523;49.758;6.120;2024-03-08T13:01:33;14.73;;;12.30;;
12910;SDS011;6523;49.758;6.120;2024-03-08T13:04:02;13.63;;;12.10;;
12910;SDS011;6523;49.758;6.120;2024-03-08T13:06:29;15.60;;;12.40;;
12910;SDS011;6523;49.758;6.120;2024-03-08T13:08:56;13.73;;;12.27;;
12910;SDS011;6523;49.758;6.120;2024-03-08T13:11:23;15.87;;;12.83;;
12910;SDS011;6523;49.758;6.120;2024-03-08T13:13:50;14.40;;;12.07;;
12910;SDS011;6523;49.758;6.120;2024-03-08T13:16:16;15.70;;;12.23;;
12910;SDS011;6523;49.758;6.120;2024-03-08T13:18:44;16.57;;;13.13;;
12910;SDS011;6523;49.758;6.120;2024-03-08T13:21:13;14.43;;;12.00;;
12910;SDS011;6523;49.758;6.120;2024-03-08T13:23:40;14.07;;;11.97;;
12910;SDS011;6523;49.758;6.120;2024-03-08T13:26:10;16.27;;;12.77;;
12910;SDS011;6523;49.758;6.120;2024-03-08T13:28:43;12.80;;;11.30;;
12910;SDS011;6523;49.758;6.120;2024-03-08T13:31:10;14.50;;;11.87;;
12910;SDS011;6523;49.758;6.120;2024-03-08T13:33:36;14.90;;;12.50;;
12910;SDS011;6523;49.758;6.120;2024-03-08T13:36:05;14.77;;;12.43;;
12910;SDS011;6523;49.758;6.120;2024-03-08T13:38:32;14.37;;;11.90;;
12910;SDS011;6523;49.758;6.120;2024-03-08T13:40:58;14.27;;;11.90;;
12910;SDS011;6523;49.758;6.120;2024-03-08T13:43:24;14.47;;;12.90;;
12910;SDS011;6523;49.758;6.120;2024-03-08T13:45:50;12.87;;;11.47;;
12910;SDS011;6523;49.758;6.120;2024-03-08T13:48:17;13.80;;;12.23;;
12910;SDS011;6523;49.758;6.120;2024-03-08T13:50:43;13.60;;;12.17;;
12910;SDS011;6523;49.758;6.120;2024-03-08T13:53:08;13.17;;;11.63;;
12910;SDS011;6523;49.758;6.120;2024-03-08T13:55:35;14.50;;;12.13;;
12910;SDS011;6523;49.758;6.120;2024-03-08T13:58:00;14.40;;;11.90;;
12910;SDS011;6523;49.758;6.120;2024-03-08T14:00:27;14.53;;;12.17;;
12910;SDS011;6523;49.758;6.120;2024-03-08T14:02:58;14.80;;;12.37;;
12910;SDS011;6523;49.758;6.120;2024-03-08T14:05:24;15.57;;;11.87;;
12910;SDS011;6523;49.758;6.120;2024-03-08T14:07:49;19.37;;;13.63;;
12910;SDS011;6523;49.758;6.120;2024-03-08T14:10:15;13.80;;;11.93;;
12910;SDS011;6523;49.758;6.120;2024-03-08T14:12:44;68.33;;;27.47;;
12910;SDS011;6523;49.758;6.120;2024-03-08T14:15:13;16.07;;;13.30;;
12910;SDS011;6523;49.758;6.120;2024-03-08T14:17:38;15.17;;;13.67;;
12910;SDS011;6523;49.758;6.120;2024-03-08T14:20:04;16.70;;;12.77;;
12910;SDS011;6523;49.758;6.120;2024-03-08T14:22:31;16.37;;;12.90;;
12910;SDS011;6523;49.758;6.120;2024-03-08T14:24:56;14.23;;;12.20;;
12910;SDS011;6523;49.758;6.120;2024-03-08T14:27:22;14.77;;;12.83;;
12910;SDS011;6523;49.758;6.120;2024-03-08T14:29:48;14.30;;;12.10;;
12910;SDS011;6523;49.758;6.120;2024-03-08T14:32:13;17.13;;;13.27;;
12910;SDS011;6523;49.758;6.120;2024-03-08T14:34:39;14.27;;;12.03;;
12910;SDS011;6523;49.758;6.120;2024-03-08T14:37:05;15.97;;;12.00;;
12910;SDS011;6523;49.758;6.120;2024-03-08T14:39:36;15.30;;;12.97;;
12910;SDS011;6523;49.758;6.120;2024-03-08T14:42:02;15.23;;;12.67;;
12910;SDS011;6523;49.758;6.120;2024-03-08T14:44:28;20.37;;;15.17;;
12910;SDS011;6523;49.758;6.120;2024-03-08T14:46:58;17.37;;;12.97;;
12910;SDS011;6523;49.758;6.120;2024-03-08T14:49:27;15.70;;;12.93;;
12910;SDS011;6523;49.758;6.120;2024-03-08T14:51:54;14.77;;;12.63;;